CheckWX is a tool to help pilots better visualize weather data.  It is not intended as a substitute for an official pre-flight weather briefing.

08:47:50 UTC

KADF METAR
Dexter B Florence Memorial Field Airport
Arkadelphia, Arkansas, USA
Current

28 mins ago

KADF 220820Z AUTO 32007KT 10SM VCTS -RA BKN005 OVC042 06/06 A3012 RMK AO2 LTG DSNT NW TSB09RAB14 P0000
Observed
Feb-22 @ 08:20 UTC
Wind
  • 320° at 7 KTS
Visibility
10 SM
Flight Rules
IFR
Conditions
Area Thunderstorm, Light Rain
Cloud Levels
  • Broken at 500' AGL
  • Overcast at 4,200' AGL
Temperature
C / 43°F
Dewpoint
C / 43°F
Humidity
100%
Altimeter
30.12" Hg
Pressure
1020.02 hPa
Current Rain
0.01"
Previous

52 mins ago

KADF 220756Z AUTO VRB04KT 10SM BKN005 OVC044 06/06 A3011 RMK AO2 LTG DSNT SW AND W RAE10 SLP200 P0000 T00610061
Observed
Feb-22 @ 07:56 UTC
Wind
  • Variable at 4 KTS
Visibility
10 SM
Flight Rules
IFR
Cloud Levels
  • Broken at 500' AGL
  • Overcast at 4,400' AGL
Temperature
C / 43°F
Dewpoint
C / 43°F
Humidity
100%
Altimeter
30.11" Hg
Pressure
1020 hPa
Current Rain
0.01"
Previous

1 hour ago

KADF 220735Z AUTO 05005KT 7SM FEW008 SCT014 OVC044 06/06 A3011 RMK AO2 RAE10 P0000
Observed
Feb-22 @ 07:35 UTC
Wind
  • 050° at 5 KTS
Visibility
7 SM
Flight Rules
VFR
Cloud Levels
  • Few at 800' AGL
  • Scattered at 1,400' AGL
  • Overcast at 4,400' AGL
Temperature
C / 43°F
Dewpoint
C / 43°F
Humidity
100%
Altimeter
30.11" Hg
Pressure
1019.62 hPa
Current Rain
0.01"